createdAt,value
2022-08-05T00:01:20.006Z,22.38
2022-08-05T00:03:47.055Z,22.33
2022-08-05T00:06:29.517Z,22.36
2022-08-05T00:09:00.946Z,22.33
2022-08-05T00:11:48.499Z,22.14
2022-08-05T00:14:27.565Z,22.13
2022-08-05T00:17:18.677Z,22.10
2022-08-05T00:20:02.230Z,22.01
2022-08-05T00:22:30.968Z,22.02
2022-08-05T00:24:59.316Z,22.10
2022-08-05T00:27:36.270Z,22.06
2022-08-05T00:30:19.931Z,22.05
2022-08-05T00:33:00.741Z,21.93
2022-08-05T00:35:33.451Z,21.92
2022-08-05T00:38:02.996Z,21.83
2022-08-05T00:40:34.469Z,21.96
2022-08-05T00:43:16.317Z,21.95
2022-08-05T00:45:45.208Z,21.79
2022-08-05T00:48:31.219Z,21.85
2022-08-05T00:50:59.589Z,21.86
2022-08-05T00:54:00.842Z,21.79
2022-08-05T00:56:25.954Z,21.80
2022-08-05T00:59:06.984Z,21.75
2022-08-05T01:01:42.737Z,21.63
2022-08-05T01:04:26.607Z,21.61
2022-08-05T01:07:05.237Z,21.63
2022-08-05T01:09:34.376Z,21.52
2022-08-05T01:12:18.218Z,21.55
2022-08-05T01:14:52.043Z,21.63
2022-08-05T01:17:54.233Z,21.51
2022-08-05T01:20:40.327Z,21.38
2022-08-05T01:23:34.756Z,21.36
2022-08-05T01:26:34.099Z,21.42
2022-08-05T01:29:30.776Z,21.23
2022-08-05T01:32:22.579Z,21.11
2022-08-05T01:34:55.495Z,21.17
2022-08-05T01:37:58.052Z,21.21
2022-08-05T01:40:30.996Z,21.06
2022-08-05T01:43:03.819Z,21.11
2022-08-05T01:45:35.041Z,21.06
2022-08-05T01:48:14.176Z,20.98
2022-08-05T01:50:50.906Z,20.98
2022-08-05T01:53:57.624Z,20.94
2022-08-05T01:56:12.404Z,20.88
2022-08-05T01:58:45.346Z,20.93
2022-08-05T02:01:25.435Z,20.85
2022-08-05T02:03:57.643Z,20.73
2022-08-05T02:06:37.825Z,20.69
2022-08-05T02:09:14.731Z,20.69
2022-08-05T02:11:52.993Z,20.56
2022-08-05T02:14:32.091Z,20.51
2022-08-05T02:18:31.560Z,20.33
2022-08-05T02:20:39.114Z,20.52
2022-08-05T02:23:11.340Z,20.42
2022-08-05T02:25:49.072Z,20.31
2022-08-05T02:28:46.072Z,20.37
2022-08-05T02:31:34.607Z,20.44
2022-08-05T02:34:12.344Z,20.35
2022-08-05T02:36:50.073Z,20.37
2022-08-05T02:39:22.664Z,20.28
2022-08-05T02:42:00.993Z,20.21
2022-08-05T02:44:38.934Z,20.08
2022-08-05T02:47:58.540Z,20.18
2022-08-05T02:50:28.800Z,20.09
2022-08-05T02:53:04.150Z,20.11
2022-08-05T02:55:51.917Z,20.00
2022-08-05T02:58:26.732Z,20.04
2022-08-05T03:01:02.719Z,20.05
2022-08-05T03:04:02.105Z,20.06
2022-08-05T03:06:57.161Z,20.03
2022-08-05T03:09:57.869Z,19.97
2022-08-05T03:12:37.754Z,19.98
2022-08-05T03:15:10.160Z,19.84
2022-08-05T03:17:47.200Z,19.80
2022-08-05T03:20:24.505Z,19.90
2022-08-05T03:22:59.525Z,19.90
2022-08-05T03:26:04.321Z,19.87
2022-08-05T03:28:26.107Z,19.78
2022-08-05T03:30:56.547Z,19.75
2022-08-05T03:33:25.452Z,19.76
2022-08-05T03:36:13.724Z,19.86
2022-08-05T03:38:53.393Z,19.87
2022-08-05T03:41:46.807Z,19.86
2022-08-05T03:44:19.847Z,19.86
2022-08-05T03:46:48.721Z,19.79
2022-08-05T03:49:17.457Z,19.90
2022-08-05T03:52:36.906Z,19.88
2022-08-05T03:56:09.781Z,19.95
2022-08-05T03:58:12.908Z,19.93
2022-08-05T04:00:44.263Z,19.90
2022-08-05T04:03:38.241Z,19.85
2022-08-05T04:06:21.013Z,19.88
2022-08-05T04:08:48.584Z,20.03
2022-08-05T04:11:23.217Z,19.95
2022-08-05T04:14:33.897Z,20.01
2022-08-05T04:17:06.282Z,20.05
2022-08-05T04:19:44.050Z,20.16
2022-08-05T04:22:12.805Z,20.16
2022-08-05T04:24:52.758Z,20.16
2022-08-05T04:27:42.130Z,20.22
2022-08-05T04:30:11.330Z,20.16
2022-08-05T04:32:40.562Z,20.19
2022-08-05T04:35:19.344Z,20.34
2022-08-05T04:38:02.852Z,20.42
2022-08-05T04:40:36.353Z,20.46
2022-08-05T04:43:16.789Z,20.42
2022-08-05T04:45:48.980Z,20.50
2022-08-05T04:48:27.374Z,20.53
2022-08-05T04:51:13.527Z,20.67
2022-08-05T04:53:41.666Z,20.76
2022-08-05T04:56:33.742Z,20.80
2022-08-05T04:58:58.244Z,20.68
2022-08-05T05:01:33.604Z,20.62
2022-08-05T05:04:13.839Z,20.61
2022-08-05T05:07:09.350Z,20.60
2022-08-05T05:09:38.842Z,20.64
2022-08-05T05:12:08.038Z,20.80
2022-08-05T05:14:37.242Z,20.88
2022-08-05T05:17:07.542Z,20.97
2022-08-05T05:19:44.144Z,21.03
2022-08-05T05:22:24.301Z,21.04
2022-08-05T05:24:58.667Z,21.07
2022-08-05T05:27:44.458Z,21.09
2022-08-05T05:30:29.304Z,21.29
2022-08-05T05:33:03.605Z,21.29
2022-08-05T05:35:45.366Z,21.30
2022-08-05T05:38:13.722Z,21.43
2022-08-05T05:40:50.047Z,21.62
2022-08-05T05:46:05.215Z,21.83
2022-08-05T05:48:34.662Z,21.96
2022-08-05T05:51:14.947Z,22.12
2022-08-05T05:53:54.019Z,22.23
2022-08-05T05:56:32.750Z,22.36
2022-08-05T05:59:06.749Z,22.54
2022-08-05T06:01:38.010Z,22.66
2022-08-05T06:04:07.757Z,22.80
2022-08-05T06:06:42.108Z,22.90
2022-08-05T06:09:17.322Z,22.96
2022-08-05T06:12:01.675Z,23.07
2022-08-05T06:14:34.830Z,23.24
2022-08-05T06:17:22.526Z,23.50
2022-08-05T06:19:56.882Z,23.60
2022-08-05T06:22:29.210Z,23.58
2022-08-05T06:24:58.101Z,23.71
2022-08-05T06:28:12.093Z,23.86
2022-08-05T06:30:17.653Z,24.07
2022-08-05T06:32:50.599Z,24.25
2022-08-05T06:36:03.841Z,24.38
2022-08-05T06:38:14.466Z,24.46
2022-08-05T06:40:44.653Z,24.40
2022-08-05T06:43:58.580Z,24.48
2022-08-05T06:46:07.336Z,24.32
2022-08-05T06:48:56.370Z,24.46
2022-08-05T06:51:29.915Z,24.56
2022-08-05T06:54:03.368Z,24.70
2022-08-05T06:56:33.884Z,24.78
2022-08-05T06:59:03.903Z,25.00
2022-08-05T07:01:36.669Z,25.13
2022-08-05T07:04:04.059Z,25.19
2022-08-05T07:06:31.820Z,25.21
2022-08-05T07:09:00.103Z,25.39
2022-08-05T07:11:32.944Z,25.63
2022-08-05T07:14:29.750Z,25.71
2022-08-05T07:18:08.589Z,25.75
2022-08-05T07:22:38.701Z,26.20
2022-08-05T07:25:22.154Z,26.37
2022-08-05T07:28:03.806Z,26.44
2022-08-05T07:30:38.524Z,26.46
2022-08-05T07:33:16.566Z,26.57
2022-08-05T07:36:05.228Z,26.69
2022-08-05T07:38:43.103Z,26.96
2022-08-05T07:42:13.277Z,27.02
2022-08-05T07:44:19.163Z,27.07
2022-08-05T07:46:50.002Z,27.03
2022-08-05T07:49:18.652Z,27.09
2022-08-05T07:51:53.777Z,27.23
2022-08-05T07:54:31.446Z,27.27
2022-08-05T07:57:41.292Z,27.31
2022-08-05T07:59:52.155Z,27.41
2022-08-05T08:02:30.917Z,27.74
2022-08-05T08:05:13.462Z,27.94
2022-08-05T08:08:00.077Z,28.08
2022-08-05T08:10:28.380Z,28.30
2022-08-05T08:13:02.509Z,28.54
2022-08-05T08:16:34.694Z,28.71
2022-08-05T08:18:26.796Z,28.70
2022-08-05T08:21:02.429Z,28.75
2022-08-05T08:24:01.456Z,28.93
2022-08-05T08:26:26.818Z,29.22
2022-08-05T08:29:21.616Z,29.37
2022-08-05T08:31:57.497Z,29.55
2022-08-05T08:34:30.367Z,29.64
2022-08-05T08:37:04.582Z,29.60
2022-08-05T08:39:37.742Z,29.57
2022-08-05T08:42:32.605Z,29.69
2022-08-05T08:45:22.360Z,29.93
2022-08-05T08:48:12.442Z,30.18
2022-08-05T08:51:03.722Z,30.18
2022-08-05T08:53:44.502Z,30.25
2022-08-05T08:56:13.387Z,30.34
2022-08-05T08:58:47.634Z,30.52
2022-08-05T09:01:32.056Z,30.68
2022-08-05T09:04:00.758Z,30.94
2022-08-05T09:06:30.932Z,31.21
2022-08-05T09:09:02.328Z,31.26
2022-08-05T09:11:51.504Z,31.10
2022-08-05T09:14:56.938Z,31.32
2022-08-05T09:17:42.591Z,31.48
2022-08-05T09:20:04.793Z,31.51
2022-08-05T09:23:07.774Z,31.64
2022-08-05T09:26:00.857Z,31.82
2022-08-05T09:28:31.650Z,32.12
2022-08-05T09:31:22.969Z,32.49
2022-08-05T09:34:03.652Z,32.91
2022-08-05T09:36:53.856Z,33.17
2022-08-05T09:39:39.332Z,32.94
2022-08-05T09:42:24.209Z,33.00
2022-08-05T09:44:56.763Z,32.95
2022-08-05T09:47:48.074Z,33.04
2022-08-05T09:50:18.215Z,33.31
2022-08-05T09:53:06.193Z,33.79
2022-08-05T09:55:57.651Z,34.14
2022-08-05T09:58:29.353Z,34.62
2022-08-05T10:01:15.015Z,34.88
2022-08-05T10:04:00.565Z,34.99
2022-08-05T10:06:30.927Z,35.08
2022-08-05T10:09:25.049Z,35.26
2022-08-05T10:11:56.181Z,35.06
2022-08-05T10:14:32.345Z,34.91
2022-08-05T10:17:38.102Z,34.59
2022-08-05T10:20:10.942Z,34.97
2022-08-05T10:22:58.973Z,35.45
2022-08-05T10:25:27.756Z,35.51
2022-08-05T10:28:13.080Z,35.80
2022-08-05T10:32:49.686Z,36.05
2022-08-05T10:33:37.655Z,36.18
2022-08-05T10:36:07.419Z,36.21
2022-08-05T10:38:37.879Z,36.29
2022-08-05T10:42:00.892Z,36.36
2022-08-05T10:44:36.796Z,36.51
2022-08-05T10:47:26.562Z,36.35
2022-08-05T10:50:32.397Z,36.62
2022-08-05T10:53:42.599Z,37.41
2022-08-05T10:56:25.593Z,37.63
2022-08-05T10:59:12.402Z,37.44
2022-08-05T11:02:34.942Z,37.35
2022-08-05T11:05:12.011Z,37.59
2022-08-05T11:08:37.415Z,37.55
2022-08-05T11:11:52.922Z,38.16
2022-08-05T11:15:11.759Z,38.23
2022-08-05T11:17:57.639Z,37.88
2022-08-05T11:20:39.112Z,38.19
2022-08-05T11:24:04.787Z,37.59
2022-08-05T11:26:43.369Z,37.88
2022-08-05T11:29:43.404Z,37.42
2022-08-05T11:32:31.190Z,37.28
2022-08-05T11:34:58.578Z,37.02
2022-08-05T11:38:30.351Z,37.48
2022-08-05T11:41:13.874Z,37.78
2022-08-05T11:44:05.788Z,38.53
2022-08-05T11:47:11.260Z,38.85
2022-08-05T11:49:58.662Z,39.76
2022-08-05T11:52:32.475Z,40.26
2022-08-05T11:55:07.479Z,40.92
2022-08-05T11:58:09.175Z,41.03
2022-08-05T12:00:39.038Z,41.33
2022-08-05T12:03:29.515Z,41.63
2022-08-05T12:06:10.252Z,41.97
2022-08-05T12:08:52.260Z,40.48
2022-08-05T12:11:39.754Z,39.50
2022-08-05T12:14:19.658Z,39.49
2022-08-05T12:16:58.287Z,39.28
2022-08-05T12:20:27.152Z,38.77
2022-08-05T12:22:20.651Z,38.21
2022-08-05T12:24:56.510Z,38.53
2022-08-05T12:27:32.964Z,38.11
2022-08-05T12:30:08.905Z,38.51
2022-08-05T12:32:50.415Z,38.66
2022-08-05T12:35:39.407Z,39.32
2022-08-05T12:38:07.514Z,38.32
2022-08-05T12:40:38.059Z,38.04
2022-08-05T12:43:20.809Z,37.87
2022-08-05T12:45:56.399Z,37.06
2022-08-05T12:48:40.153Z,36.68
2022-08-05T12:52:10.797Z,36.61
2022-08-05T12:54:14.799Z,37.62
2022-08-05T12:56:55.533Z,37.95
2022-08-05T13:00:08.300Z,37.25
2022-08-05T13:02:30.326Z,36.54
2022-08-05T13:04:57.910Z,37.16
2022-08-05T13:07:56.114Z,38.82
2022-08-05T13:10:21.393Z,39.58
2022-08-05T13:13:06.940Z,39.15
2022-08-05T13:15:50.547Z,38.65
2022-08-05T13:18:38.913Z,40.02
2022-08-05T13:21:08.884Z,41.04
2022-08-05T13:23:37.531Z,41.86
2022-08-05T13:26:21.805Z,42.81
2022-08-05T13:29:19.126Z,42.39
2022-08-05T13:32:07.157Z,41.46
2022-08-05T13:34:36.222Z,40.23
2022-08-05T13:37:13.710Z,40.65
2022-08-05T13:40:14.661Z,40.03
2022-08-05T13:42:44.226Z,40.69
2022-08-05T13:45:12.379Z,41.28
2022-08-05T13:48:09.486Z,42.35
2022-08-05T13:50:40.691Z,42.64
2022-08-05T13:53:15.920Z,42.31
2022-08-05T13:55:50.091Z,40.92
2022-08-05T13:58:31.210Z,39.54
2022-08-05T14:01:01.760Z,37.82
2022-08-05T14:03:29.465Z,37.72
2022-08-05T14:06:25.190Z,37.74
2022-08-05T14:09:08.385Z,39.35
2022-08-05T14:12:00.398Z,40.03
2022-08-05T14:14:30.831Z,39.72
2022-08-05T14:17:17.076Z,39.25
2022-08-05T14:19:59.619Z,39.41
2022-08-05T14:22:35.874Z,40.12
2022-08-05T14:25:21.779Z,40.31
2022-08-05T14:28:00.563Z,40.54
2022-08-05T14:30:29.973Z,39.76
2022-08-05T14:32:59.176Z,40.16
2022-08-05T14:35:37.213Z,40.01
2022-08-05T14:38:31.688Z,40.48
2022-08-05T14:41:08.168Z,41.16
2022-08-05T14:43:59.540Z,41.17
2022-08-05T14:46:30.687Z,42.23
2022-08-05T14:49:06.370Z,42.47
2022-08-05T14:51:53.124Z,43.12
2022-08-05T14:54:30.241Z,43.59
2022-08-05T14:57:05.203Z,44.02
2022-08-05T14:59:43.999Z,44.40
2022-08-05T15:02:20.115Z,44.70
2022-08-05T15:04:49.824Z,44.76
2022-08-05T15:08:05.774Z,44.47
2022-08-05T15:10:05.090Z,44.20
2022-08-05T15:12:59.873Z,43.89
2022-08-05T15:15:54.483Z,43.56
2022-08-05T15:18:13.477Z,43.50
2022-08-05T15:20:48.931Z,43.79
2022-08-05T15:23:16.464Z,44.11
2022-08-05T15:25:52.193Z,43.15
2022-08-05T15:28:29.600Z,43.07
2022-08-05T15:30:57.777Z,43.41
2022-08-05T15:34:18.419Z,43.57
2022-08-05T15:36:17.422Z,43.62
2022-08-05T15:41:00.281Z,43.73
2022-08-05T15:41:57.617Z,43.93
2022-08-05T15:44:28.159Z,43.36
2022-08-05T15:46:58.360Z,42.77
2022-08-05T15:49:53.555Z,42.98
2022-08-05T15:52:52.071Z,43.40
2022-08-05T15:55:07.198Z,43.65
2022-08-05T15:57:38.425Z,43.67
2022-08-05T16:00:10.786Z,43.93
2022-08-05T16:02:40.990Z,44.02
2022-08-05T16:05:11.241Z,44.13
2022-08-05T16:07:38.804Z,44.20
2022-08-05T16:10:13.804Z,44.29
2022-08-05T16:12:43.081Z,44.17
2022-08-05T16:15:18.449Z,43.88
2022-08-05T16:17:49.719Z,43.58
2022-08-05T16:20:26.104Z,43.31
2022-08-05T16:23:09.265Z,42.91
2022-08-05T16:25:37.897Z,42.45
2022-08-05T16:28:16.604Z,42.21
2022-08-05T16:30:46.115Z,42.02
2022-08-05T16:33:17.382Z,41.83
2022-08-05T16:35:48.759Z,41.61
2022-08-05T16:38:25.173Z,41.35
2022-08-05T16:40:59.842Z,41.07
2022-08-05T16:43:30.564Z,40.89
2022-08-05T16:46:05.296Z,40.80
2022-08-05T16:48:36.379Z,40.73
2022-08-05T16:51:03.943Z,40.61
2022-08-05T16:54:06.104Z,40.42
2022-08-05T16:56:29.872Z,40.24
2022-08-05T16:58:58.844Z,40.12
2022-08-05T17:01:28.217Z,39.96
2022-08-05T17:04:16.147Z,39.70
2022-08-05T17:06:53.269Z,39.30
2022-08-05T17:09:22.932Z,39.08
2022-08-05T17:11:59.282Z,38.91
2022-08-05T17:14:36.785Z,38.71
2022-08-05T17:17:14.524Z,38.53
2022-08-05T17:19:46.750Z,38.35
2022-08-05T17:22:25.528Z,38.15
2022-08-05T17:25:00.121Z,37.97
2022-08-05T17:27:34.016Z,37.84
2022-08-05T17:30:28.322Z,37.66
2022-08-05T17:32:59.099Z,37.60
2022-08-05T17:36:07.276Z,37.39
2022-08-05T17:38:24.675Z,37.27
2022-08-05T17:40:54.822Z,37.13
2022-08-05T17:43:50.318Z,36.98
2022-08-05T17:46:24.130Z,36.71
2022-08-05T17:48:55.760Z,36.44
2022-08-05T17:51:27.172Z,36.17
2022-08-05T17:53:54.794Z,35.89
2022-08-05T17:56:23.117Z,35.58
2022-08-05T17:58:56.609Z,35.33
2022-08-05T18:01:27.783Z,35.13
2022-08-05T18:03:59.710Z,34.89
2022-08-05T18:06:33.135Z,34.67
2022-08-05T18:09:09.520Z,34.36
2022-08-05T18:11:41.817Z,33.97
2022-08-05T18:14:13.497Z,33.75
2022-08-05T18:16:52.474Z,33.50
2022-08-05T18:19:22.755Z,33.22
2022-08-05T18:22:09.086Z,32.49
2022-08-05T18:24:39.594Z,32.34
2022-08-05T18:27:18.496Z,32.48
2022-08-05T18:29:53.604Z,32.44
2022-08-05T18:32:28.256Z,32.40
2022-08-05T18:34:59.665Z,32.13
2022-08-05T18:37:34.038Z,31.79
2022-08-05T18:40:34.382Z,31.45
2022-08-05T18:42:51.289Z,31.17
2022-08-05T18:45:20.384Z,31.06
2022-08-05T18:47:56.277Z,30.92
2022-08-05T18:50:46.131Z,30.74
2022-08-05T18:53:20.523Z,29.86
2022-08-05T18:55:57.521Z,29.24
2022-08-05T18:58:28.859Z,29.08
2022-08-05T19:01:02.748Z,29.51
2022-08-05T19:03:54.900Z,29.41
2022-08-05T19:07:02.523Z,29.51
2022-08-05T19:09:30.121Z,29.52
2022-08-05T19:12:18.064Z,29.13
2022-08-05T19:14:59.857Z,29.00
2022-08-05T19:17:59.158Z,28.88
2022-08-05T19:20:23.925Z,28.74
2022-08-05T19:22:53.089Z,28.68
2022-08-05T19:25:29.676Z,28.74
2022-08-05T19:27:58.457Z,28.54
2022-08-05T19:30:45.916Z,28.43
2022-08-05T19:33:17.136Z,28.46
2022-08-05T19:36:06.971Z,28.21
2022-08-05T19:38:41.820Z,28.03
2022-08-05T19:41:09.218Z,27.96
2022-08-05T19:44:06.580Z,27.88
2022-08-05T19:46:40.924Z,27.85
2022-08-05T19:49:20.658Z,27.66
2022-08-05T19:52:08.683Z,27.52
2022-08-05T19:54:42.555Z,27.45
2022-08-05T19:57:13.046Z,27.31
2022-08-05T19:59:55.027Z,27.37
2022-08-05T20:02:31.346Z,27.24
2022-08-05T20:05:01.013Z,27.16
2022-08-05T20:07:47.086Z,27.06
2022-08-05T20:10:16.549Z,26.87
2022-08-05T20:12:52.198Z,26.75
2022-08-05T20:15:52.187Z,26.48
2022-08-05T20:18:33.649Z,26.44
2022-08-05T20:21:04.608Z,26.43
2022-08-05T20:23:40.206Z,26.39
2022-08-05T20:26:27.917Z,26.34
2022-08-05T20:29:00.822Z,26.35
2022-08-05T20:31:42.969Z,26.27
2022-08-05T20:34:27.190Z,26.14
2022-08-05T20:37:04.155Z,25.95
2022-08-05T20:39:51.449Z,25.90
2022-08-05T20:42:22.448Z,25.76
2022-08-05T20:44:50.164Z,25.71
2022-08-05T20:47:19.730Z,25.59
2022-08-05T20:50:02.018Z,25.58
2022-08-05T20:52:31.194Z,25.07
2022-08-05T20:55:56.532Z,25.03
2022-08-05T20:57:48.562Z,25.27
2022-08-05T21:00:40.283Z,25.14
2022-08-05T21:03:08.030Z,25.21
2022-08-05T21:05:53.336Z,25.15
2022-08-05T21:08:42.490Z,25.05
2022-08-05T21:11:51.554Z,24.24
2022-08-05T21:14:00.960Z,23.39
2022-08-05T21:16:29.595Z,23.67
2022-08-05T21:19:00.004Z,23.70
2022-08-05T21:21:44.439Z,23.82
2022-08-05T21:24:21.126Z,23.86
2022-08-05T21:26:58.318Z,24.07
2022-08-05T21:29:31.732Z,24.35
2022-08-05T21:32:10.962Z,24.48
2022-08-05T21:34:56.003Z,24.71
2022-08-05T21:37:57.619Z,24.95
2022-08-05T21:40:31.626Z,24.97
2022-08-05T21:43:01.580Z,24.85
2022-08-05T21:45:56.277Z,24.96
2022-08-05T21:48:25.939Z,25.20
2022-08-05T21:50:54.503Z,25.37
2022-08-05T21:53:27.243Z,25.51
2022-08-05T21:56:09.582Z,25.68
2022-08-05T21:58:48.268Z,25.63
2022-08-05T22:01:26.589Z,25.73
2022-08-05T22:04:01.740Z,25.74
2022-08-05T22:06:35.088Z,25.66
2022-08-05T22:09:14.782Z,25.75
2022-08-05T22:11:46.984Z,25.74
2022-08-05T22:14:33.536Z,25.76
2022-08-05T22:17:10.933Z,25.79
2022-08-05T22:20:03.463Z,25.83
2022-08-05T22:22:28.838Z,25.85
2022-08-05T22:25:21.608Z,25.94
2022-08-05T22:28:05.035Z,25.93
2022-08-05T22:30:55.447Z,25.81
2022-08-05T22:33:55.362Z,25.87
2022-08-05T22:36:25.342Z,25.87
2022-08-05T22:38:53.640Z,25.85
2022-08-05T22:42:10.768Z,25.82
2022-08-05T22:44:34.572Z,25.76
2022-08-05T22:47:29.613Z,25.74
2022-08-05T22:50:22.771Z,25.70
2022-08-05T22:52:52.519Z,25.69
2022-08-05T22:55:26.216Z,25.71
2022-08-05T22:57:56.261Z,25.72
2022-08-05T23:00:26.542Z,25.61
2022-08-05T23:02:56.444Z,25.62
2022-08-05T23:05:36.149Z,25.60
2022-08-05T23:08:04.719Z,25.59
2022-08-05T23:10:31.789Z,25.59
2022-08-05T23:12:59.836Z,25.56
2022-08-05T23:15:35.523Z,25.51
2022-08-05T23:18:11.326Z,25.46
2022-08-05T23:20:39.283Z,25.41
2022-08-05T23:23:08.346Z,25.38
2022-08-05T23:25:52.671Z,25.37
2022-08-05T23:28:29.200Z,25.31
2022-08-05T23:31:14.848Z,25.27
2022-08-05T23:34:04.853Z,25.14
2022-08-05T23:36:39.901Z,25.03
2022-08-05T23:39:17.599Z,25.00
2022-08-05T23:42:00.262Z,25.02
2022-08-05T23:44:31.655Z,25.02
2022-08-05T23:47:02.571Z,25.11
2022-08-05T23:49:42.521Z,25.12
2022-08-05T23:52:32.300Z,25.01
2022-08-05T23:55:08.854Z,24.77
2022-08-05T23:57:42.219Z,24.68
